Time;durP1;ratioP1;P1;durP2;ratioP2;P2;SDS_P1;SDS_P2;PMS_P1;PMS_P2;Temp;Humidity;BMP_temperature;BMP_pressure;BME280_temperature;BME280_humidity;BME280_pressure;Samples;Min_cycle;Max_cycle;Signal;HPM_P1;HPM_P2
2022/05/20 00:05:18;;;;;;;9.98;3.63;;;26.40;33.80;;;;;;20999719;28;20131;-63
2022/05/20 00:15:22;;;;;;;16.83;4.57;;;26.10;33.90;;;;;;20998376;28;20056;-64
2022/05/20 00:35:46;;;;;;;10.43;3.08;;;25.90;34.20;;;;;;20997352;28;20066;-63
2022/05/20 00:45:47;;;;;;;8.93;2.85;;;25.70;34.30;;;;;;20996212;28;20481;-63
2022/05/20 00:55:49;;;;;;;11.63;4.38;;;25.60;34.80;;;;;;20996112;28;20060;-65
2022/05/20 01:05:52;;;;;;;8.98;2.78;;;25.50;34.90;;;;;;20995833;28;20095;-64
2022/05/20 01:15:55;;;;;;;10.32;3.05;;;25.30;35.00;;;;;;20995236;28;20049;-63
2022/05/20 01:26:03;;;;;;;9.32;3.55;;;25.30;35.00;;;;;;20995321;28;20405;-63
2022/05/20 01:36:15;;;;;;;8.20;3.20;;;25.20;34.80;;;;;;20994676;28;20053;-63
2022/05/20 01:46:39;;;;;;;7.97;3.13;;;25.10;35.00;;;;;;20992141;28;20057;-64
2022/05/20 01:56:59;;;;;;;14.45;3.30;;;25.10;35.60;;;;;;20993221;28;20052;-64
2022/05/20 02:07:08;;;;;;;11.25;3.70;;;25.00;36.20;;;;;;20994004;28;20131;-64
2022/05/20 02:17:24;;;;;;;12.73;3.65;;;24.80;36.50;;;;;;20993653;28;20051;-64
2022/05/20 02:27:38;;;;;;;11.82;3.40;;;24.60;36.90;;;;;;20992873;28;20048;-64
2022/05/20 02:37:41;;;;;;;12.93;3.80;;;24.50;37.60;;;;;;21001987;28;20135;-64
2022/05/20 02:47:45;;;;;;;14.82;3.67;;;24.20;38.20;;;;;;21005188;28;20041;-64
2022/05/20 02:57:49;;;;;;;8.82;3.58;;;24.20;38.00;;;;;;21005457;28;20490;-64
2022/05/20 03:07:51;;;;;;;11.10;3.25;;;24.00;38.10;;;;;;21004620;28;20413;-63
2022/05/20 03:17:53;;;;;;;8.43;2.97;;;23.90;37.70;;;;;;21004219;28;20531;-64
2022/05/20 03:27:55;;;;;;;11.18;3.63;;;23.70;37.70;;;;;;21002682;28;20431;-64
2022/05/20 03:37:58;;;;;;;6.97;3.35;;;23.80;36.90;;;;;;21000788;28;20048;-63
2022/05/20 03:48:00;;;;;;;8.60;3.00;;;23.60;37.00;;;;;;21001053;28;20509;-63
2022/05/20 03:58:02;;;;;;;10.77;3.70;;;23.60;36.80;;;;;;21000087;28;20408;-64
2022/05/20 04:08:04;;;;;;;;;;;23.60;36.70;;;;;;21000770;28;20044;-64
2022/05/20 04:18:06;;;;;;;8.75;3.42;;;23.50;36.70;;;;;;20998316;28;19921;-63
2022/05/20 04:28:08;;;;;;;;;;;23.50;37.00;;;;;;20998004;28;20060;-64
2022/05/20 04:38:10;;;;;;;12.55;3.28;;;23.50;36.40;;;;;;20997010;28;19952;-65
2022/05/20 04:48:16;;;;;;;9.68;3.10;;;23.40;36.60;;;;;;20995219;28;20109;-64
2022/05/20 04:58:17;;;;;;;8.90;3.47;;;23.50;36.80;;;;;;20993244;28;20106;-63
2022/05/20 05:08:19;;;;;;;19.23;4.10;;;23.40;37.10;;;;;;20995329;28;20102;-64
2022/05/20 05:18:25;;;;;;;13.63;3.88;;;23.50;37.00;;;;;;20994961;28;20091;-64
2022/05/20 05:28:26;;;;;;;12.65;3.85;;;23.40;37.20;;;;;;20995214;28;20076;-64
2022/05/20 05:38:28;;;;;;;15.53;3.37;;;23.20;37.20;;;;;;20994522;28;20053;-64
2022/05/20 05:48:30;;;;;;;14.95;4.15;;;23.30;36.70;;;;;;20993367;28;20135;-63
2022/05/20 05:58:32;;;;;;;11.43;3.43;;;23.40;37.00;;;;;;20993132;28;20049;-64
2022/05/20 06:08:34;;;;;;;12.00;3.90;;;23.40;37.60;;;;;;20998902;28;20102;-63
2022/05/20 06:18:35;;;;;;;16.90;4.17;;;23.40;37.80;;;;;;21008065;28;20498;-64
2022/05/20 06:28:37;;;;;;;15.50;3.53;;;23.40;37.30;;;;;;21006531;28;20052;-64
2022/05/20 06:49:01;;;;;;;12.85;3.55;;;23.60;37.00;;;;;;21005067;28;20048;-65
2022/05/20 06:59:04;;;;;;;11.60;3.60;;;23.70;36.90;;;;;;21004753;28;20509;-64
2022/05/20 07:09:06;;;;;;;11.35;3.53;;;23.70;36.80;;;;;;21003629;28;20056;-64
2022/05/20 07:19:08;;;;;;;11.23;3.88;;;23.70;36.50;;;;;;21002181;28;20127;-65
2022/05/20 07:29:10;;;;;;;11.00;3.40;;;24.00;36.50;;;;;;21001254;28;20045;-65
2022/05/20 07:39:11;;;;;;;14.90;3.77;;;24.40;35.60;;;;;;21001484;28;20056;-65
2022/05/20 07:49:14;;;;;;;12.70;3.47;;;24.70;35.00;;;;;;21001591;28;20405;-64
2022/05/20 07:59:19;;;;;;;11.45;3.38;;;25.10;34.80;;;;;;20999147;28;20139;-64
2022/05/20 08:09:22;;;;;;;12.13;3.15;;;25.60;32.90;;;;;;20999110;28;20485;-64
2022/05/20 08:19:24;;;;;;;10.68;2.97;;;25.90;32.00;;;;;;20980205;28;20064;-65
2022/05/20 08:29:25;;;;;;;;;;;25.70;32.00;;;;;;20998016;28;20185;-63
2022/05/20 08:39:27;;;;;;;8.60;4.07;;;25.60;32.10;;;;;;20994967;28;20448;-64
2022/05/20 08:49:29;;;;;;;10.65;3.78;;;25.80;32.50;;;;;;20995896;28;20405;-64
2022/05/20 08:59:31;;;;;;;6.20;2.92;;;25.90;32.30;;;;;;20995243;28;20048;-66
2022/05/20 09:10:03;;;;;;;11.23;3.47;;;25.90;31.70;;;;;;20994023;28;20433;-63
2022/05/20 09:20:07;;;;;;;10.48;3.28;;;26.10;31.60;;;;;;20995173;28;20564;-64
2022/05/20 09:30:13;;;;;;;11.80;3.72;;;26.30;32.10;;;;;;20941225;28;20739;-57
2022/05/20 09:40:24;;;;;;;7.53;3.53;;;26.50;33.00;;;;;;20903410;28;20048;-62
2022/05/20 09:50:34;;;;;;;9.75;3.33;;;26.80;31.60;;;;;;20947209;28;20055;-61
2022/05/20 10:00:38;;;;;;;9.60;3.10;;;26.80;31.40;;;;;;20920354;28;20049;-73
2022/05/20 10:10:43;;;;;;;7.65;3.45;;;27.00;31.40;;;;;;20877080;28;20405;-62
2022/05/20 10:21:03;;;;;;;14.23;3.13;;;27.20;30.70;;;;;;20925397;28;20409;-70
2022/05/20 10:41:38;;;;;;;10.10;2.85;;;27.60;29.40;;;;;;20923923;28;20049;-66
2022/05/20 10:51:45;;;;;;;12.43;3.25;;;27.90;28.70;;;;;;20922798;28;20346;-61
2022/05/20 11:01:56;;;;;;;9.35;3.28;;;28.00;29.50;;;;;;20920749;28;20052;-57
2022/05/20 11:12:03;;;;;;;17.17;2.80;;;28.30;30.70;;;;;;20920980;28;20080;-64
2022/05/20 11:22:39;;;;;;;13.65;3.10;;;28.50;29.30;;;;;;20919275;28;20048;-56
2022/05/20 11:33:05;;;;;;;11.70;3.42;;;28.60;28.10;;;;;;20910643;28;20084;-57
2022/05/20 11:43:29;;;;;;;11.45;4.55;;;28.70;28.60;;;;;;20909152;28;20053;-56
2022/05/20 11:53:38;;;;;;;11.50;3.10;;;29.10;27.10;;;;;;20908098;28;20131;-56
2022/05/20 12:14:05;;;;;;;12.88;3.13;;;29.40;26.40;;;;;;20915780;28;20049;-67
2022/05/20 12:24:15;;;;;;;10.10;4.07;;;29.60;26.50;;;;;;20914622;28;20084;-68
2022/05/20 12:34:40;;;;;;;13.68;3.13;;;29.90;26.00;;;;;;20914049;28;20052;-67
2022/05/20 12:44:41;;;;;;;9.45;3.05;;;30.30;25.20;;;;;;20913013;28;20057;-67
2022/05/20 12:54:55;;;;;;;9.98;2.58;;;30.50;24.90;;;;;;20911240;28;20057;-68
2022/05/20 13:05:07;;;;;;;8.13;2.40;;;30.70;24.00;;;;;;20912171;28;20145;-69
2022/05/20 13:15:09;;;;;;;12.30;2.58;;;31.10;24.00;;;;;;20911014;28;20140;-68
2022/05/20 13:25:11;;;;;;;8.50;2.47;;;31.30;23.20;;;;;;20911990;28;20045;-70
2022/05/20 13:35:13;;;;;;;5.13;2.88;;;31.40;23.30;;;;;;20910359;28;20118;-71
2022/05/20 13:45:18;;;;;;;8.30;2.50;;;31.60;23.20;;;;;;20910603;28;20049;-67
2022/05/20 13:55:31;;;;;;;9.82;3.08;;;31.70;23.30;;;;;;20910070;28;20053;-68
2022/05/20 14:05:41;;;;;;;9.57;2.33;;;31.80;23.10;;;;;;20910148;28;20053;-71
2022/05/20 14:15:45;;;;;;;;;;;32.00;22.90;;;;;;20909921;28;20547;-70
2022/05/20 14:25:58;;;;;;;11.15;2.33;;;32.10;22.80;;;;;;20908952;28;19921;-72
2022/05/20 14:36:05;;;;;;;7.10;2.38;;;32.30;22.50;;;;;;20924776;28;20137;-68
2022/05/20 14:46:07;;;;;;;10.77;2.78;;;32.20;22.70;;;;;;20922780;28;20190;-71
2022/05/20 14:56:42;;;;;;;8.80;2.80;;;32.20;23.00;;;;;;20922325;28;20048;-70
2022/05/20 15:06:46;;;;;;;8.35;2.67;;;32.30;21.90;;;;;;20922371;28;20382;-71
2022/05/20 15:16:47;;;;;;;6.93;2.03;;;32.50;22.80;;;;;;20921547;28;20447;-71
2022/05/20 15:26:50;;;;;;;11.25;3.28;;;32.90;21.70;;;;;;20920167;28;20049;-59
2022/05/20 15:37:15;;;;;;;10.23;2.95;;;32.80;22.90;;;;;;20919003;28;20076;-56
2022/05/20 15:47:17;;;;;;;12.60;2.50;;;32.60;23.10;;;;;;20916685;28;20049;-57
2022/05/20 15:57:21;;;;;;;11.15;3.25;;;32.60;23.30;;;;;;20916486;28;20096;-62
2022/05/20 16:07:23;;;;;;;7.95;2.95;;;32.80;23.00;;;;;;20915712;28;20126;-57
2022/05/20 16:17:24;;;;;;;8.57;2.88;;;32.80;23.00;;;;;;20914654;28;20045;-58
2022/05/20 16:27:27;;;;;;;8.73;3.33;;;32.90;23.60;;;;;;20914710;28;20049;-66
2022/05/20 16:37:29;;;;;;;10.82;3.17;;;33.00;24.10;;;;;;20913628;28;20133;-59
2022/05/20 16:47:40;;;;;;;6.43;3.15;;;32.90;23.80;;;;;;20882555;28;20498;-62
2022/05/20 17:08:02;;;;;;;10.68;3.08;;;33.10;24.30;;;;;;20831042;28;20045;-57
2022/05/20 17:18:04;;;;;;;12.23;3.85;;;33.00;24.80;;;;;;20903474;28;20049;-60
2022/05/20 17:28:07;;;;;;;13.05;3.53;;;33.00;24.70;;;;;;20874505;28;20051;-57
2022/05/20 17:38:09;;;;;;;9.68;3.00;;;32.80;25.40;;;;;;20910424;28;20080;-58
2022/05/20 17:48:11;;;;;;;10.55;4.03;;;32.60;25.70;;;;;;20909505;28;20124;-60
2022/05/20 17:58:14;;;;;;;10.88;4.80;;;32.40;26.30;;;;;;20904477;28;20053;-60
2022/05/20 18:08:17;;;;;;;10.07;4.38;;;32.20;26.90;;;;;;20847280;28;20155;-59
2022/05/20 18:18:19;;;;;;;10.23;4.50;;;32.00;27.90;;;;;;20841900;28;20049;-58
2022/05/20 18:28:21;;;;;;;10.25;4.40;;;31.90;28.30;;;;;;20842159;28;20410;-57
2022/05/20 18:48:44;;;;;;;10.70;4.10;;;31.40;30.10;;;;;;20998696;28;20128;-64
2022/05/20 18:58:45;;;;;;;10.95;3.78;;;31.20;30.70;;;;;;20922528;28;20064;-66
2022/05/20 19:08:49;;;;;;;11.70;5.25;;;31.10;31.20;;;;;;20920857;28;20409;-64
2022/05/20 19:18:51;;;;;;;13.82;4.55;;;31.10;31.60;;;;;;20918980;28;20049;-64
2022/05/20 19:28:52;;;;;;;15.18;4.20;;;30.80;32.10;;;;;;20918703;28;20056;-63
2022/05/20 19:38:54;;;;;;;9.07;4.05;;;30.70;32.50;;;;;;20917457;28;20053;-64
2022/05/20 19:48:56;;;;;;;11.98;5.80;;;30.50;32.90;;;;;;20918163;28;20045;-63
2022/05/20 20:09:19;;;;;;;11.57;4.35;;;30.00;33.50;;;;;;20915469;28;20045;-63
2022/05/20 20:19:20;;;;;;;17.58;9.52;;;30.00;33.60;;;;;;20916009;28;20053;-66
2022/05/20 20:29:23;;;;;;;9.07;5.18;;;29.70;33.90;;;;;;20915007;28;20055;-63
2022/05/20 20:39:25;;;;;;;12.30;5.68;;;29.60;34.20;;;;;;20914592;28;20057;-69
2022/05/20 20:49:27;;;;;;;8.15;4.85;;;29.40;34.30;;;;;;20896253;28;20448;-65
2022/05/20 20:59:29;;;;;;;8.27;3.85;;;29.20;34.40;;;;;;20912712;28;20063;-69
2022/05/20 21:09:30;;;;;;;7.35;4.32;;;29.10;34.50;;;;;;20911964;28;20057;-67
2022/05/20 21:19:33;;;;;;;13.13;4.65;;;28.90;34.90;;;;;;20911255;28;20093;-67
2022/05/20 21:29:35;;;;;;;8.75;4.18;;;28.70;35.10;;;;;;20912041;28;20077;-65
2022/05/20 21:39:36;;;;;;;9.18;3.70;;;28.60;35.10;;;;;;20919101;28;20088;-66
2022/05/20 21:49:39;;;;;;;8.02;3.90;;;28.50;35.30;;;;;;20928388;28;20049;-63
2022/05/20 21:59:42;;;;;;;8.13;3.38;;;28.30;35.50;;;;;;20927918;28;20049;-63
2022/05/20 22:09:44;;;;;;;7.70;3.80;;;28.10;35.30;;;;;;20926668;28;20049;-66
2022/05/20 22:19:47;;;;;;;6.32;3.08;;;28.00;35.40;;;;;;20925856;28;20048;-63
2022/05/20 22:29:48;;;;;;;7.35;3.95;;;27.90;35.40;;;;;;20925159;28;20041;-63
2022/05/20 22:39:50;;;;;;;5.57;3.40;;;27.60;35.40;;;;;;20924503;28;20060;-69
2022/05/20 22:49:52;;;;;;;6.93;3.60;;;27.60;35.50;;;;;;20921990;28;20044;-64
2022/05/20 22:59:53;;;;;;;7.32;2.75;;;27.40;35.60;;;;;;20923019;28;20440;-69
2022/05/20 23:09:55;;;;;;;6.88;2.80;;;27.30;35.60;;;;;;20922137;28;20136;-63
2022/05/20 23:19:58;;;;;;;6.38;2.67;;;27.10;35.70;;;;;;20920766;28;20053;-73
2022/05/20 23:30:00;;;;;;;6.05;2.60;;;26.90;35.80;;;;;;20920473;28;20049;-68
2022/05/20 23:40:02;;;;;;;6.07;2.63;;;26.70;36.00;;;;;;20919552;28;20053;-69
2022/05/20 23:50:06;;;;;;;9.30;3.15;;;26.60;36.20;;;;;;20919612;28;20128;-69
